sensor_id;sensor_type;location;lat;lon;timestamp;P1;durP1;ratioP1;P2;durP2;ratioP2
73264;SDS011;76371;51.008;14.088;2024-03-23T00:52:45;7.57;;;4.28;;
73264;SDS011;76371;51.008;14.088;2024-03-23T00:55:10;6.57;;;3.80;;
73264;SDS011;76371;51.008;14.088;2024-03-23T00:57:36;7.80;;;3.97;;
73264;SDS011;76371;51.008;14.088;2024-03-23T01:00:01;8.30;;;4.38;;
73264;SDS011;76371;51.008;14.088;2024-03-23T01:02:26;7.20;;;3.63;;
73264;SDS011;76371;51.008;14.088;2024-03-23T01:04:51;10.25;;;4.90;;
73264;SDS011;76371;51.008;14.088;2024-03-23T01:07:16;6.38;;;4.00;;
73264;SDS011;76371;51.008;14.088;2024-03-23T01:09:42;9.23;;;4.80;;
73264;SDS011;76371;51.008;14.088;2024-03-23T01:12:07;5.97;;;4.47;;
73264;SDS011;76371;51.008;14.088;2024-03-23T01:14:32;6.00;;;4.30;;
73264;SDS011;76371;51.008;14.088;2024-03-23T01:16:57;8.90;;;4.15;;
73264;SDS011;76371;51.008;14.088;2024-03-23T01:19:22;7.15;;;3.92;;
73264;SDS011;76371;51.008;14.088;2024-03-23T01:21:48;7.18;;;3.90;;
73264;SDS011;76371;51.008;14.088;2024-03-23T01:24:14;6.00;;;3.90;;
73264;SDS011;76371;51.008;14.088;2024-03-23T01:26:39;6.97;;;3.83;;
73264;SDS011;76371;51.008;14.088;2024-03-23T01:29:05;10.75;;;5.22;;
73264;SDS011;76371;51.008;14.088;2024-03-23T01:31:30;8.00;;;4.50;;
73264;SDS011;76371;51.008;14.088;2024-03-23T01:33:55;8.20;;;5.22;;
73264;SDS011;76371;51.008;14.088;2024-03-23T01:36:20;10.23;;;4.85;;
73264;SDS011;76371;51.008;14.088;2024-03-23T01:38:45;8.82;;;4.43;;
73264;SDS011;76371;51.008;14.088;2024-03-23T01:41:11;6.95;;;4.10;;
73264;SDS011;76371;51.008;14.088;2024-03-23T01:43:36;8.90;;;4.68;;
73264;SDS011;76371;51.008;14.088;2024-03-23T01:46:01;9.52;;;5.13;;
73264;SDS011;76371;51.008;14.088;2024-03-23T01:48:26;7.40;;;4.45;;
73264;SDS011;76371;51.008;14.088;2024-03-23T01:50:51;9.93;;;4.57;;
73264;SDS011;76371;51.008;14.088;2024-03-23T01:53:17;9.50;;;5.65;;
73264;SDS011;76371;51.008;14.088;2024-03-23T01:55:44;8.57;;;5.38;;
73264;SDS011;76371;51.008;14.088;2024-03-23T01:58:09;11.07;;;5.20;;
73264;SDS011;76371;51.008;14.088;2024-03-23T02:00:34;10.77;;;5.60;;
73264;SDS011;76371;51.008;14.088;2024-03-23T02:03:00;8.93;;;5.47;;
73264;SDS011;76371;51.008;14.088;2024-03-23T02:05:25;10.65;;;5.55;;
73264;SDS011;76371;51.008;14.088;2024-03-23T02:07:50;7.25;;;4.50;;
73264;SDS011;76371;51.008;14.088;2024-03-23T02:10:16;12.00;;;5.03;;
73264;SDS011;76371;51.008;14.088;2024-03-23T02:12:41;7.85;;;4.88;;
73264;SDS011;76371;51.008;14.088;2024-03-23T02:15:06;10.65;;;4.85;;
73264;SDS011;76371;51.008;14.088;2024-03-23T02:17:33;9.25;;;4.70;;
73264;SDS011;76371;51.008;14.088;2024-03-23T02:19:59;9.07;;;5.18;;
73264;SDS011;76371;51.008;14.088;2024-03-23T02:22:24;12.32;;;5.47;;
73264;SDS011;76371;51.008;14.088;2024-03-23T02:24:49;11.65;;;5.78;;
73264;SDS011;76371;51.008;14.088;2024-03-23T02:27:14;8.45;;;5.38;;
73264;SDS011;76371;51.008;14.088;2024-03-23T02:29:39;8.98;;;5.65;;
73264;SDS011;76371;51.008;14.088;2024-03-23T02:32:05;10.80;;;6.45;;
73264;SDS011;76371;51.008;14.088;2024-03-23T02:34:30;13.50;;;7.45;;
73264;SDS011;76371;51.008;14.088;2024-03-23T02:36:56;15.40;;;8.13;;
73264;SDS011;76371;51.008;14.088;2024-03-23T02:39:21;12.82;;;6.97;;
73264;SDS011;76371;51.008;14.088;2024-03-23T02:41:46;13.82;;;7.45;;
73264;SDS011;76371;51.008;14.088;2024-03-23T02:44:13;11.80;;;7.28;;
73264;SDS011;76371;51.008;14.088;2024-03-23T02:46:38;19.90;;;9.00;;
73264;SDS011;76371;51.008;14.088;2024-03-23T02:49:04;15.82;;;7.65;;
73264;SDS011;76371;51.008;14.088;2024-03-23T02:51:29;19.33;;;9.50;;
73264;SDS011;76371;51.008;14.088;2024-03-23T02:53:58;15.55;;;9.02;;
73264;SDS011;76371;51.008;14.088;2024-03-23T02:56:23;15.70;;;8.38;;
73264;SDS011;76371;51.008;14.088;2024-03-23T02:58:48;18.70;;;10.07;;
73264;SDS011;76371;51.008;14.088;2024-03-23T03:01:13;19.40;;;8.77;;
73264;SDS011;76371;51.008;14.088;2024-03-23T03:03:39;15.02;;;8.55;;
73264;SDS011;76371;51.008;14.088;2024-03-23T03:06:04;15.68;;;8.00;;
73264;SDS011;76371;51.008;14.088;2024-03-23T03:08:29;16.30;;;8.90;;
73264;SDS011;76371;51.008;14.088;2024-03-23T03:10:54;16.28;;;10.22;;
73264;SDS011;76371;51.008;14.088;2024-03-23T03:13:19;16.94;;;9.48;;
73264;SDS011;76371;51.008;14.088;2024-03-23T03:15:45;16.95;;;9.50;;
73264;SDS011;76371;51.008;14.088;2024-03-23T03:18:10;18.40;;;9.65;;
73264;SDS011;76371;51.008;14.088;2024-03-23T03:20:39;16.77;;;8.07;;
73264;SDS011;76371;51.008;14.088;2024-03-23T03:23:07;15.25;;;8.65;;
73264;SDS011;76371;51.008;14.088;2024-03-23T03:25:32;15.43;;;8.55;;
73264;SDS011;76371;51.008;14.088;2024-03-23T03:27:57;15.43;;;9.15;;
73264;SDS011;76371;51.008;14.088;2024-03-23T03:30:22;15.40;;;8.98;;
73264;SDS011;76371;51.008;14.088;2024-03-23T03:32:49;18.08;;;10.65;;
73264;SDS011;76371;51.008;14.088;2024-03-23T03:35:14;14.77;;;8.18;;
73264;SDS011;76371;51.008;14.088;2024-03-23T03:37:39;13.35;;;8.00;;
73264;SDS011;76371;51.008;14.088;2024-03-23T03:40:04;12.78;;;7.02;;
73264;SDS011;76371;51.008;14.088;2024-03-23T03:42:30;15.75;;;8.45;;
73264;SDS011;76371;51.008;14.088;2024-03-23T03:44:55;13.48;;;8.48;;
73264;SDS011;76371;51.008;14.088;2024-03-23T03:47:20;15.70;;;8.45;;
73264;SDS011;76371;51.008;14.088;2024-03-23T03:49:45;14.48;;;8.55;;
73264;SDS011;76371;51.008;14.088;2024-03-23T03:52:12;13.60;;;7.95;;
73264;SDS011;76371;51.008;14.088;2024-03-23T03:54:37;16.65;;;8.15;;
73264;SDS011;76371;51.008;14.088;2024-03-23T03:57:02;15.82;;;8.45;;
73264;SDS011;76371;51.008;14.088;2024-03-23T03:59:29;13.82;;;8.73;;
73264;SDS011;76371;51.008;14.088;2024-03-23T04:01:54;13.98;;;7.85;;
73264;SDS011;76371;51.008;14.088;2024-03-23T04:04:19;15.40;;;7.93;;
73264;SDS011;76371;51.008;14.088;2024-03-23T04:06:45;12.73;;;6.75;;
73264;SDS011;76371;51.008;14.088;2024-03-23T04:09:10;14.90;;;8.05;;
73264;SDS011;76371;51.008;14.088;2024-03-23T04:11:36;18.52;;;9.05;;
73264;SDS011;76371;51.008;14.088;2024-03-23T04:14:01;18.75;;;9.05;;
73264;SDS011;76371;51.008;14.088;2024-03-23T04:16:27;14.93;;;8.73;;
73264;SDS011;76371;51.008;14.088;2024-03-23T04:18:52;19.20;;;10.32;;
73264;SDS011;76371;51.008;14.088;2024-03-23T04:21:18;20.13;;;11.15;;
73264;SDS011;76371;51.008;14.088;2024-03-23T04:23:43;19.98;;;10.77;;
73264;SDS011;76371;51.008;14.088;2024-03-23T04:26:08;15.80;;;8.48;;
73264;SDS011;76371;51.008;14.088;2024-03-23T04:28:33;16.38;;;8.77;;
73264;SDS011;76371;51.008;14.088;2024-03-23T04:31:03;13.98;;;7.93;;
73264;SDS011;76371;51.008;14.088;2024-03-23T04:33:28;16.98;;;8.85;;
73264;SDS011;76371;51.008;14.088;2024-03-23T04:35:53;15.90;;;8.75;;
73264;SDS011;76371;51.008;14.088;2024-03-23T04:38:18;11.98;;;7.60;;
73264;SDS011;76371;51.008;14.088;2024-03-23T04:40:44;15.70;;;9.05;;
73264;SDS011;76371;51.008;14.088;2024-03-23T04:43:09;13.88;;;8.27;;
73264;SDS011;76371;51.008;14.088;2024-03-23T04:45:34;16.58;;;8.25;;
73264;SDS011;76371;51.008;14.088;2024-03-23T04:48:00;16.13;;;8.60;;
73264;SDS011;76371;51.008;14.088;2024-03-23T04:50:25;11.18;;;7.40;;
73264;SDS011;76371;51.008;14.088;2024-03-23T04:52:50;14.00;;;8.60;;
73264;SDS011;76371;51.008;14.088;2024-03-23T04:55:16;16.65;;;9.05;;
73264;SDS011;76371;51.008;14.088;2024-03-23T04:57:42;14.82;;;8.15;;
73264;SDS011;76371;51.008;14.088;2024-03-23T05:00:07;16.05;;;8.02;;
73264;SDS011;76371;51.008;14.088;2024-03-23T05:02:42;14.40;;;8.00;;
73264;SDS011;76371;51.008;14.088;2024-03-23T05:05:07;17.33;;;8.77;;
73264;SDS011;76371;51.008;14.088;2024-03-23T05:07:32;14.73;;;7.90;;
73264;SDS011;76371;51.008;14.088;2024-03-23T05:09:57;15.40;;;7.75;;
73264;SDS011;76371;51.008;14.088;2024-03-23T05:12:23;14.63;;;7.28;;
73264;SDS011;76371;51.008;14.088;2024-03-23T05:14:48;13.93;;;7.70;;
73264;SDS011;76371;51.008;14.088;2024-03-23T05:17:15;12.63;;;6.40;;
73264;SDS011;76371;51.008;14.088;2024-03-23T05:19:40;13.66;;;6.54;;
73264;SDS011;76371;51.008;14.088;2024-03-23T05:22:05;14.50;;;7.47;;
73264;SDS011;76371;51.008;14.088;2024-03-23T05:24:31;14.75;;;6.82;;
73264;SDS011;76371;51.008;14.088;2024-03-23T05:26:56;11.55;;;6.60;;
73264;SDS011;76371;51.008;14.088;2024-03-23T05:29:24;14.38;;;7.32;;
73264;SDS011;76371;51.008;14.088;2024-03-23T05:31:51;17.58;;;8.98;;
73264;SDS011;76371;51.008;14.088;2024-03-23T05:34:17;19.15;;;9.63;;
73264;SDS011;76371;51.008;14.088;2024-03-23T05:36:42;18.05;;;9.65;;
73264;SDS011;76371;51.008;14.088;2024-03-23T05:39:08;18.98;;;10.45;;
73264;SDS011;76371;51.008;14.088;2024-03-23T05:41:33;18.70;;;10.94;;
73264;SDS011;76371;51.008;14.088;2024-03-23T05:44:00;22.63;;;12.10;;
73264;SDS011;76371;51.008;14.088;2024-03-23T05:46:26;19.86;;;11.14;;
73264;SDS011;76371;51.008;14.088;2024-03-23T05:48:51;22.32;;;11.72;;
73264;SDS011;76371;51.008;14.088;2024-03-23T05:51:16;19.67;;;10.68;;
73264;SDS011;76371;51.008;14.088;2024-03-23T05:53:42;17.55;;;9.75;;
73264;SDS011;76371;51.008;14.088;2024-03-23T05:56:07;17.90;;;9.96;;
73264;SDS011;76371;51.008;14.088;2024-03-23T05:58:32;22.85;;;10.07;;
73264;SDS011;76371;51.008;14.088;2024-03-23T06:00:58;16.30;;;10.05;;
73264;SDS011;76371;51.008;14.088;2024-03-23T06:03:24;22.55;;;10.77;;
73264;SDS011;76371;51.008;14.088;2024-03-23T06:05:50;25.55;;;12.25;;
73264;SDS011;76371;51.008;14.088;2024-03-23T06:08:15;18.80;;;10.75;;
73264;SDS011;76371;51.008;14.088;2024-03-23T06:10:40;21.33;;;10.18;;
73264;SDS011;76371;51.008;14.088;2024-03-23T06:13:05;25.92;;;13.65;;
73264;SDS011;76371;51.008;14.088;2024-03-23T06:15:30;24.98;;;11.60;;
73264;SDS011;76371;51.008;14.088;2024-03-23T06:17:56;28.33;;;12.82;;
73264;SDS011;76371;51.008;14.088;2024-03-23T06:20:22;20.60;;;11.85;;
73264;SDS011;76371;51.008;14.088;2024-03-23T06:22:47;25.85;;;12.30;;
73264;SDS011;76371;51.008;14.088;2024-03-23T06:25:12;18.05;;;10.63;;
73264;SDS011;76371;51.008;14.088;2024-03-23T06:27:37;23.77;;;12.05;;
73264;SDS011;76371;51.008;14.088;2024-03-23T06:30:04;22.48;;;11.15;;
73264;SDS011;76371;51.008;14.088;2024-03-23T06:32:29;24.55;;;10.32;;
73264;SDS011;76371;51.008;14.088;2024-03-23T06:34:54;23.50;;;13.18;;
73264;SDS011;76371;51.008;14.088;2024-03-23T06:37:20;20.05;;;11.70;;
73264;SDS011;76371;51.008;14.088;2024-03-23T06:39:45;17.85;;;10.55;;
73264;SDS011;76371;51.008;14.088;2024-03-23T06:42:11;18.88;;;11.07;;
73264;SDS011;76371;51.008;14.088;2024-03-23T06:44:36;23.70;;;11.32;;
73264;SDS011;76371;51.008;14.088;2024-03-23T06:47:01;23.10;;;11.27;;
73264;SDS011;76371;51.008;14.088;2024-03-23T06:49:27;25.08;;;12.48;;
73264;SDS011;76371;51.008;14.088;2024-03-23T06:51:52;22.25;;;11.38;;
73264;SDS011;76371;51.008;14.088;2024-03-23T06:54:18;25.02;;;12.46;;
73264;SDS011;76371;51.008;14.088;2024-03-23T06:56:44;21.75;;;11.45;;
73264;SDS011;76371;51.008;14.088;2024-03-23T06:59:09;20.15;;;10.63;;
73264;SDS011;76371;51.008;14.088;2024-03-23T07:01:35;24.13;;;12.05;;
73264;SDS011;76371;51.008;14.088;2024-03-23T07:04:01;25.42;;;12.80;;
73264;SDS011;76371;51.008;14.088;2024-03-23T07:06:27;23.63;;;12.57;;
73264;SDS011;76371;51.008;14.088;2024-03-23T07:08:52;20.05;;;11.82;;
73264;SDS011;76371;51.008;14.088;2024-03-23T07:11:18;24.92;;;11.93;;
73264;SDS011;76371;51.008;14.088;2024-03-23T07:13:43;20.35;;;11.57;;
73264;SDS011;76371;51.008;14.088;2024-03-23T07:16:12;26.42;;;13.05;;
73264;SDS011;76371;51.008;14.088;2024-03-23T07:18:39;18.73;;;11.02;;
73264;SDS011;76371;51.008;14.088;2024-03-23T07:21:05;22.00;;;11.57;;
73264;SDS011;76371;51.008;14.088;2024-03-23T07:23:32;20.00;;;11.85;;
73264;SDS011;76371;51.008;14.088;2024-03-23T07:26:01;22.98;;;12.52;;
73264;SDS011;76371;51.008;14.088;2024-03-23T07:28:27;20.02;;;11.93;;
73264;SDS011;76371;51.008;14.088;2024-03-23T07:31:06;19.77;;;11.00;;
73264;SDS011;76371;51.008;14.088;2024-03-23T07:33:33;20.92;;;11.18;;
73264;SDS011;76371;51.008;14.088;2024-03-23T07:35:59;19.17;;;11.63;;
73264;SDS011;76371;51.008;14.088;2024-03-23T07:38:27;17.48;;;10.38;;
73264;SDS011;76371;51.008;14.088;2024-03-23T07:41:01;20.73;;;11.82;;
73264;SDS011;76371;51.008;14.088;2024-03-23T07:43:27;22.20;;;10.48;;
73264;SDS011;76371;51.008;14.088;2024-03-23T07:45:53;19.58;;;12.27;;
73264;SDS011;76371;51.008;14.088;2024-03-23T07:48:18;24.90;;;12.73;;
73264;SDS011;76371;51.008;14.088;2024-03-23T07:50:43;20.05;;;10.68;;
73264;SDS011;76371;51.008;14.088;2024-03-23T07:53:08;17.17;;;10.18;;
73264;SDS011;76371;51.008;14.088;2024-03-23T07:55:33;20.27;;;10.93;;
73264;SDS011;76371;51.008;14.088;2024-03-23T07:57:59;19.77;;;10.52;;
73264;SDS011;76371;51.008;14.088;2024-03-23T08:00:24;21.95;;;10.18;;
73264;SDS011;76371;51.008;14.088;2024-03-23T08:02:50;15.55;;;9.98;;
73264;SDS011;76371;51.008;14.088;2024-03-23T08:05:16;17.40;;;10.20;;
73264;SDS011;76371;51.008;14.088;2024-03-23T08:07:41;19.23;;;10.23;;
73264;SDS011;76371;51.008;14.088;2024-03-23T08:10:06;17.70;;;9.88;;
73264;SDS011;76371;51.008;14.088;2024-03-23T08:12:31;16.85;;;9.00;;
73264;SDS011;76371;51.008;14.088;2024-03-23T08:14:56;15.55;;;9.18;;
73264;SDS011;76371;51.008;14.088;2024-03-23T08:17:22;19.65;;;9.10;;
73264;SDS011;76371;51.008;14.088;2024-03-23T08:19:47;15.63;;;7.88;;
73264;SDS011;76371;51.008;14.088;2024-03-23T08:22:13;15.98;;;8.55;;
73264;SDS011;76371;51.008;14.088;2024-03-23T08:24:39;13.80;;;6.50;;
73264;SDS011;76371;51.008;14.088;2024-03-23T08:27:04;12.15;;;7.30;;
73264;SDS011;76371;51.008;14.088;2024-03-23T08:29:29;11.27;;;7.55;;
73264;SDS011;76371;51.008;14.088;2024-03-23T08:31:56;13.77;;;7.45;;
73264;SDS011;76371;51.008;14.088;2024-03-23T08:34:22;11.82;;;7.10;;
73264;SDS011;76371;51.008;14.088;2024-03-23T08:36:47;14.57;;;6.63;;
73264;SDS011;76371;51.008;14.088;2024-03-23T08:39:12;12.80;;;7.15;;
73264;SDS011;76371;51.008;14.088;2024-03-23T08:41:37;10.57;;;6.95;;
73264;SDS011;76371;51.008;14.088;2024-03-23T08:44:02;10.50;;;6.38;;
73264;SDS011;76371;51.008;14.088;2024-03-23T08:46:28;10.77;;;5.63;;
73264;SDS011;76371;51.008;14.088;2024-03-23T08:48:53;11.25;;;5.97;;
73264;SDS011;76371;51.008;14.088;2024-03-23T08:51:18;10.50;;;6.47;;
73264;SDS011;76371;51.008;14.088;2024-03-23T08:53:44;11.63;;;6.63;;
73264;SDS011;76371;51.008;14.088;2024-03-23T08:56:10;9.73;;;5.97;;
73264;SDS011;76371;51.008;14.088;2024-03-23T08:58:36;10.48;;;6.47;;
73264;SDS011;76371;51.008;14.088;2024-03-23T09:01:11;11.25;;;6.60;;
73264;SDS011;76371;51.008;14.088;2024-03-23T09:03:38;10.82;;;6.03;;
73264;SDS011;76371;51.008;14.088;2024-03-23T09:06:07;13.68;;;7.20;;
73264;SDS011;76371;51.008;14.088;2024-03-23T09:08:32;10.63;;;6.00;;
73264;SDS011;76371;51.008;14.088;2024-03-23T09:10:57;13.82;;;7.60;;
73264;SDS011;76371;51.008;14.088;2024-03-23T09:13:22;10.07;;;5.93;;
73264;SDS011;76371;51.008;14.088;2024-03-23T09:15:48;13.02;;;7.25;;
73264;SDS011;76371;51.008;14.088;2024-03-23T09:18:14;12.02;;;6.72;;
73264;SDS011;76371;51.008;14.088;2024-03-23T09:20:39;15.77;;;6.85;;
73264;SDS011;76371;51.008;14.088;2024-03-23T09:23:04;14.25;;;7.03;;
73264;SDS011;76371;51.008;14.088;2024-03-23T09:25:29;13.75;;;8.02;;
73264;SDS011;76371;51.008;14.088;2024-03-23T09:27:56;12.88;;;8.10;;
73264;SDS011;76371;51.008;14.088;2024-03-23T09:30:21;12.05;;;7.15;;
73264;SDS011;76371;51.008;14.088;2024-03-23T09:32:47;13.57;;;7.97;;
73264;SDS011;76371;51.008;14.088;2024-03-23T09:35:18;14.48;;;7.57;;
73264;SDS011;76371;51.008;14.088;2024-03-23T09:37:44;13.05;;;7.63;;
73264;SDS011;76371;51.008;14.088;2024-03-23T09:40:10;15.35;;;7.85;;
73264;SDS011;76371;51.008;14.088;2024-03-23T09:42:36;16.27;;;8.30;;
73264;SDS011;76371;51.008;14.088;2024-03-23T09:45:01;13.15;;;7.40;;
73264;SDS011;76371;51.008;14.088;2024-03-23T09:47:27;20.60;;;9.48;;
73264;SDS011;76371;51.008;14.088;2024-03-23T09:49:52;11.70;;;6.60;;
73264;SDS011;76371;51.008;14.088;2024-03-23T09:52:17;14.23;;;8.80;;
73264;SDS011;76371;51.008;14.088;2024-03-23T09:54:43;11.95;;;6.97;;
73264;SDS011;76371;51.008;14.088;2024-03-23T09:57:08;11.13;;;7.10;;
73264;SDS011;76371;51.008;14.088;2024-03-23T09:59:33;13.10;;;7.78;;
73264;SDS011;76371;51.008;14.088;2024-03-23T10:01:59;11.00;;;6.35;;
73264;SDS011;76371;51.008;14.088;2024-03-23T10:04:37;11.73;;;6.72;;
73264;SDS011;76371;51.008;14.088;2024-03-23T10:09:37;13.70;;;5.93;;
73264;SDS011;76371;51.008;14.088;2024-03-23T10:12:09;11.57;;;6.38;;
73264;SDS011;76371;51.008;14.088;2024-03-23T10:14:35;13.45;;;7.40;;
73264;SDS011;76371;51.008;14.088;2024-03-23T10:17:17;22.70;;;11.20;;
73264;SDS011;76371;51.008;14.088;2024-03-23T10:19:43;16.02;;;9.13;;
73264;SDS011;76371;51.008;14.088;2024-03-23T10:22:09;20.65;;;10.73;;
73264;SDS011;76371;51.008;14.088;2024-03-23T10:24:35;21.95;;;10.70;;
73264;SDS011;76371;51.008;14.088;2024-03-23T10:27:00;21.73;;;10.95;;
73264;SDS011;76371;51.008;14.088;2024-03-23T10:29:25;16.67;;;9.63;;
73264;SDS011;76371;51.008;14.088;2024-03-23T10:31:53;14.15;;;6.18;;
73264;SDS011;76371;51.008;14.088;2024-03-23T10:34:24;8.35;;;3.95;;
73264;SDS011;76371;51.008;14.088;2024-03-23T10:36:50;5.03;;;2.38;;
73264;SDS011;76371;51.008;14.088;2024-03-23T10:39:17;3.33;;;1.77;;
73264;SDS011;76371;51.008;14.088;2024-03-23T10:41:42;1.98;;;1.20;;
73264;SDS011;76371;51.008;14.088;2024-03-23T10:44:08;2.40;;;1.27;;
73264;SDS011;76371;51.008;14.088;2024-03-23T10:46:33;3.00;;;0.90;;
73264;SDS011;76371;51.008;14.088;2024-03-23T10:48:58;0.60;;;0.60;;
73264;SDS011;76371;51.008;14.088;2024-03-23T10:51:24;2.38;;;0.70;;
73264;SDS011;76371;51.008;14.088;2024-03-23T10:53:49;1.90;;;0.65;;
73264;SDS011;76371;51.008;14.088;2024-03-23T10:56:14;0.82;;;0.75;;
73264;SDS011;76371;51.008;14.088;2024-03-23T10:58:41;0.45;;;0.45;;
73264;SDS011;76371;51.008;14.088;2024-03-23T11:01:19;1.23;;;0.50;;
73264;SDS011;76371;51.008;14.088;2024-03-23T11:03:59;0.35;;;0.28;;
73264;SDS011;76371;51.008;14.088;2024-03-23T11:06:37;0.43;;;0.30;;
73264;SDS011;76371;51.008;14.088;2024-03-23T11:11:53;0.60;;;0.40;;
73264;SDS011;76371;51.008;14.088;2024-03-23T11:14:30;0.30;;;0.20;;
73264;SDS011;76371;51.008;14.088;2024-03-23T11:17:39;5.05;;;0.60;;
73264;SDS011;76371;51.008;14.088;2024-03-23T11:20:01;1.42;;;0.57;;
73264;SDS011;76371;51.008;14.088;2024-03-23T11:25:15;3.95;;;0.68;;
73264;SDS011;76371;51.008;14.088;2024-03-23T11:27:40;0.55;;;0.50;;
73264;SDS011;76371;51.008;14.088;2024-03-23T11:30:12;0.43;;;0.40;;
73264;SDS011;76371;51.008;14.088;2024-03-23T11:32:37;0.60;;;0.30;;
73264;SDS011;76371;51.008;14.088;2024-03-23T11:35:03;8.75;;;0.70;;
73264;SDS011;76371;51.008;14.088;2024-03-23T11:37:28;0.52;;;0.22;;
73264;SDS011;76371;51.008;14.088;2024-03-23T11:39:53;0.30;;;0.30;;
73264;SDS011;76371;51.008;14.088;2024-03-23T11:42:18;0.47;;;0.47;;
73264;SDS011;76371;51.008;14.088;2024-03-23T11:44:44;0.10;;;0.10;;
73264;SDS011;76371;51.008;14.088;2024-03-23T11:47:09;0.77;;;0.30;;
73264;SDS011;76371;51.008;14.088;2024-03-23T11:49:35;1.15;;;0.43;;
73264;SDS011;76371;51.008;14.088;2024-03-23T11:52:05;0.40;;;0.40;;
73264;SDS011;76371;51.008;14.088;2024-03-23T11:54:31;0.40;;;0.40;;
73264;SDS011;76371;51.008;14.088;2024-03-23T11:57:00;0.30;;;0.30;;
73264;SDS011;76371;51.008;14.088;2024-03-23T11:59:32;0.73;;;0.50;;
73264;SDS011;76371;51.008;14.088;2024-03-23T12:01:58;0.55;;;0.47;;
73264;SDS011;76371;51.008;14.088;2024-03-23T12:04:27;1.27;;;0.60;;
73264;SDS011;76371;51.008;14.088;2024-03-23T12:07:09;0.55;;;0.43;;
73264;SDS011;76371;51.008;14.088;2024-03-23T12:09:34;0.45;;;0.30;;
73264;SDS011;76371;51.008;14.088;2024-03-23T12:12:05;0.86;;;0.50;;
73264;SDS011;76371;51.008;14.088;2024-03-23T12:14:30;0.40;;;0.40;;
73264;SDS011;76371;51.008;14.088;2024-03-23T12:16:56;0.40;;;0.40;;
73264;SDS011;76371;51.008;14.088;2024-03-23T12:19:31;0.77;;;0.38;;
73264;SDS011;76371;51.008;14.088;2024-03-23T12:21:57;0.30;;;0.30;;
73264;SDS011;76371;51.008;14.088;2024-03-23T12:24:22;0.32;;;0.32;;
73264;SDS011;76371;51.008;14.088;2024-03-23T12:26:47;0.40;;;0.40;;
73264;SDS011;76371;51.008;14.088;2024-03-23T12:29:15;0.77;;;0.40;;
73264;SDS011;76371;51.008;14.088;2024-03-23T12:31:40;0.30;;;0.30;;
73264;SDS011;76371;51.008;14.088;2024-03-23T12:34:06;3.70;;;0.73;;
73264;SDS011;76371;51.008;14.088;2024-03-23T12:36:31;0.30;;;0.30;;
73264;SDS011;76371;51.008;14.088;2024-03-23T12:38:56;0.43;;;0.40;;
73264;SDS011;76371;51.008;14.088;2024-03-23T12:41:21;0.78;;;0.48;;
73264;SDS011;76371;51.008;14.088;2024-03-23T12:43:46;0.63;;;0.50;;
73264;SDS011;76371;51.008;14.088;2024-03-23T12:46:11;0.58;;;0.56;;
73264;SDS011;76371;51.008;14.088;2024-03-23T12:48:37;1.30;;;0.77;;
73264;SDS011;76371;51.008;14.088;2024-03-23T12:51:02;0.62;;;0.58;;
73264;SDS011;76371;51.008;14.088;2024-03-23T12:53:27;1.85;;;1.05;;
73264;SDS011;76371;51.008;14.088;2024-03-23T12:55:52;1.05;;;0.93;;
73264;SDS011;76371;51.008;14.088;2024-03-23T12:58:17;1.35;;;0.80;;
73264;SDS011;76371;51.008;14.088;2024-03-23T13:00:42;1.27;;;0.63;;
73264;SDS011;76371;51.008;14.088;2024-03-23T13:03:09;0.88;;;0.60;;
73264;SDS011;76371;51.008;14.088;2024-03-23T13:05:38;1.00;;;0.85;;
73264;SDS011;76371;51.008;14.088;2024-03-23T13:08:03;0.70;;;0.70;;
73264;SDS011;76371;51.008;14.088;2024-03-23T13:10:29;0.95;;;0.75;;
73264;SDS011;76371;51.008;14.088;2024-03-23T13:12:56;0.63;;;0.60;;
73264;SDS011;76371;51.008;14.088;2024-03-23T13:15:22;1.15;;;0.98;;
73264;SDS011;76371;51.008;14.088;2024-03-23T13:17:47;1.35;;;0.70;;
73264;SDS011;76371;51.008;14.088;2024-03-23T13:20:12;1.65;;;0.80;;
73264;SDS011;76371;51.008;14.088;2024-03-23T13:22:39;0.73;;;0.70;;
73264;SDS011;76371;51.008;14.088;2024-03-23T13:25:05;0.68;;;0.65;;
73264;SDS011;76371;51.008;14.088;2024-03-23T13:27:30;1.95;;;1.15;;
73264;SDS011;76371;51.008;14.088;2024-03-23T13:29:55;1.67;;;1.10;;
73264;SDS011;76371;51.008;14.088;2024-03-23T13:32:20;1.67;;;0.88;;
73264;SDS011;76371;51.008;14.088;2024-03-23T13:34:46;1.06;;;0.88;;
73264;SDS011;76371;51.008;14.088;2024-03-23T13:37:15;1.27;;;1.00;;
73264;SDS011;76371;51.008;14.088;2024-03-23T13:39:40;2.22;;;1.40;;
73264;SDS011;76371;51.008;14.088;2024-03-23T13:42:06;3.13;;;1.63;;
73264;SDS011;76371;51.008;14.088;2024-03-23T13:44:34;3.67;;;2.10;;
73264;SDS011;76371;51.008;14.088;2024-03-23T13:46:59;2.78;;;1.70;;
73264;SDS011;76371;51.008;14.088;2024-03-23T13:51:53;3.53;;;2.10;;
73264;SDS011;76371;51.008;14.088;2024-03-23T13:54:19;3.47;;;2.03;;
73264;SDS011;76371;51.008;14.088;2024-03-23T13:56:44;3.47;;;1.85;;
73264;SDS011;76371;51.008;14.088;2024-03-23T13:59:09;3.42;;;1.63;;
73264;SDS011;76371;51.008;14.088;2024-03-23T14:01:35;4.00;;;2.28;;
73264;SDS011;76371;51.008;14.088;2024-03-23T14:04:00;2.22;;;1.60;;
73264;SDS011;76371;51.008;14.088;2024-03-23T14:06:25;2.83;;;1.63;;
73264;SDS011;76371;51.008;14.088;2024-03-23T14:08:51;3.45;;;2.10;;
73264;SDS011;76371;51.008;14.088;2024-03-23T14:11:17;2.90;;;1.83;;
73264;SDS011;76371;51.008;14.088;2024-03-23T14:13:42;4.90;;;1.77;;
73264;SDS011;76371;51.008;14.088;2024-03-23T14:16:08;2.60;;;1.65;;
73264;SDS011;76371;51.008;14.088;2024-03-23T14:18:33;3.82;;;1.70;;
73264;SDS011;76371;51.008;14.088;2024-03-23T14:21:00;3.55;;;1.80;;
73264;SDS011;76371;51.008;14.088;2024-03-23T14:23:26;4.03;;;2.17;;
73264;SDS011;76371;51.008;14.088;2024-03-23T14:25:54;4.18;;;2.00;;
73264;SDS011;76371;51.008;14.088;2024-03-23T14:28:19;4.65;;;1.88;;
73264;SDS011;76371;51.008;14.088;2024-03-23T14:30:45;6.13;;;2.03;;
73264;SDS011;76371;51.008;14.088;2024-03-23T14:33:10;3.70;;;1.70;;
73264;SDS011;76371;51.008;14.088;2024-03-23T14:35:35;2.65;;;1.65;;
73264;SDS011;76371;51.008;14.088;2024-03-23T14:38:01;6.07;;;2.88;;
73264;SDS011;76371;51.008;14.088;2024-03-23T14:40:26;4.75;;;3.38;;
73264;SDS011;76371;51.008;14.088;2024-03-23T14:42:54;5.68;;;2.30;;
73264;SDS011;76371;51.008;14.088;2024-03-23T14:45:20;3.08;;;1.90;;
73264;SDS011;76371;51.008;14.088;2024-03-23T14:47:45;3.00;;;2.03;;
73264;SDS011;76371;51.008;14.088;2024-03-23T14:50:10;5.07;;;2.10;;
73264;SDS011;76371;51.008;14.088;2024-03-23T14:52:40;6.25;;;2.95;;
73264;SDS011;76371;51.008;14.088;2024-03-23T14:55:05;2.47;;;2.10;;
73264;SDS011;76371;51.008;14.088;2024-03-23T14:57:30;4.32;;;1.75;;
73264;SDS011;76371;51.008;14.088;2024-03-23T14:59:56;4.40;;;2.00;;
73264;SDS011;76371;51.008;14.088;2024-03-23T15:02:21;3.70;;;1.75;;
73264;SDS011;76371;51.008;14.088;2024-03-23T15:04:46;2.92;;;1.80;;
73264;SDS011;76371;51.008;14.088;2024-03-23T15:07:11;7.54;;;1.70;;
73264;SDS011;76371;51.008;14.088;2024-03-23T15:09:36;4.53;;;1.60;;
73264;SDS011;76371;51.008;14.088;2024-03-23T15:12:01;4.32;;;1.40;;
73264;SDS011;76371;51.008;14.088;2024-03-23T15:14:27;3.75;;;1.60;;
73264;SDS011;76371;51.008;14.088;2024-03-23T15:16:52;2.42;;;1.80;;
73264;SDS011;76371;51.008;14.088;2024-03-23T15:19:17;6.00;;;2.20;;